Time;durP1;ratioP1;P1;durP2;ratioP2;P2;SDS_P1;SDS_P2;PMS_P1;PMS_P2;Temp;Humidity;BMP_temperature;BMP_pressure;BME280_temperature;BME280_humidity;BME280_pressure;Samples;Min_cycle;Max_cycle;Signal;HPM_P1;HPM_P2
2022/03/27 00:02:00;;;;;;;1.27;0.50;;;;;;;-4.52;52.78;100764.59;5111103;27;20092;-76
2022/03/27 00:04:25;;;;;;;0.65;0.65;;;;;;;-4.57;52.88;100774.00;5126982;27;20055;-78
2022/03/27 00:06:51;;;;;;;0.70;0.70;;;;;;;-4.57;53.13;100770.50;5076761;27;20039;-78
2022/03/27 00:09:16;;;;;;;1.80;0.60;;;;;;;-4.58;53.13;100776.88;5117132;27;20397;-79
2022/03/27 00:11:42;;;;;;;0.98;0.80;;;;;;;-4.55;53.06;100788.06;5123293;27;20267;-78
2022/03/27 00:14:08;;;;;;;0.93;0.60;;;;;;;-4.55;53.84;100792.56;5122048;27;20065;-78
2022/03/27 00:16:35;;;;;;;0.50;0.50;;;;;;;-4.57;53.86;100802.63;5095383;28;20043;-79
2022/03/27 00:19:01;;;;;;;0.68;0.63;;;;;;;-4.59;54.38;100799.31;5110499;27;20035;-77
2022/03/27 00:21:27;;;;;;;1.08;0.60;;;;;;;-4.59;54.08;100791.28;5111111;27;20028;-78
2022/03/27 00:23:53;;;;;;;0.50;0.50;;;;;;;-4.60;54.66;100797.66;5090247;27;20042;-78
2022/03/27 00:26:20;;;;;;;2.25;0.57;;;;;;;-4.63;53.54;100825.59;5102591;27;20031;-78
2022/03/27 00:28:46;;;;;;;0.50;0.50;;;;;;;-4.60;53.83;100838.63;5116948;27;20036;-78
2022/03/27 00:31:12;;;;;;;1.05;0.63;;;;;;;-4.65;53.16;100806.22;5101920;27;20027;-79
2022/03/27 00:33:39;;;;;;;1.10;0.70;;;;;;;-4.67;53.64;100820.78;5126190;27;20035;-78
2022/03/27 00:36:06;;;;;;;0.73;0.50;;;;;;;-4.68;52.91;100816.44;5123826;27;20390;-79
2022/03/27 00:38:32;;;;;;;1.00;0.60;;;;;;;-4.69;53.69;100822.78;5118528;27;20100;-78
2022/03/27 00:40:59;;;;;;;1.15;0.50;;;;;;;-4.70;53.78;100835.34;5099240;27;20032;-78
2022/03/27 00:43:25;;;;;;;1.10;0.80;;;;;;;-4.69;53.79;100842.38;5086205;27;20039;-79
2022/03/27 00:45:51;;;;;;;1.48;0.90;;;;;;;-4.70;53.40;100851.41;5123883;27;20032;-78
2022/03/27 00:48:18;;;;;;;1.90;1.30;;;;;;;-4.71;53.65;100849.75;5083321;28;20032;-79
2022/03/27 00:50:48;;;;;;;2.65;1.17;;;;;;;-4.74;54.07;100850.09;5126362;27;20169;-79
2022/03/27 00:53:14;;;;;;;3.20;2.17;;;;;;;-4.79;53.96;100863.19;5129206;27;20127;-79
2022/03/27 00:55:40;;;;;;;5.18;1.88;;;;;;;-4.83;53.59;100869.06;5115911;27;20039;-77
2022/03/27 00:58:06;;;;;;;5.80;2.10;;;;;;;-4.87;53.46;100866.72;5121860;27;20058;-79
2022/03/27 01:00:37;;;;;;;5.93;2.20;;;;;;;-4.85;54.45;100877.28;5094696;28;20040;-79
2022/03/27 01:03:09;;;;;;;3.13;1.75;;;;;;;-4.81;53.52;100877.75;5129652;27;20047;-78
2022/03/27 01:05:35;;;;;;;3.83;1.98;;;;;;;-4.80;53.25;100869.56;5119854;27;20048;-78
2022/03/27 01:08:05;;;;;;;1.42;1.02;;;;;;;-4.79;53.05;100884.59;5122192;27;20043;-78
2022/03/27 01:10:30;;;;;;;1.92;0.82;;;;;;;-4.78;53.41;100883.59;5109315;27;20043;-78
2022/03/27 01:12:56;;;;;;;0.77;0.77;;;;;;;-4.78;53.29;100859.50;5103877;27;20089;-78
2022/03/27 01:15:26;;;;;;;0.88;0.63;;;;;;;-4.81;53.13;100891.16;5116920;27;20492;-78
2022/03/27 01:17:51;;;;;;;1.02;0.70;;;;;;;-4.83;53.93;100890.50;5088142;28;20043;-78
2022/03/27 01:20:32;;;;;;;0.50;0.50;;;;;;;-4.91;53.81;100894.84;5084669;28;20048;-78
2022/03/27 01:22:59;;;;;;;1.88;0.60;;;;;;;-4.95;53.36;100908.75;5073933;28;20159;-78
2022/03/27 01:25:24;;;;;;;1.27;0.70;;;;;;;-4.99;54.61;100915.47;5098235;27;20774;-78
2022/03/27 01:27:50;;;;;;;0.68;0.57;;;;;;;-5.03;54.70;100908.78;5084850;28;20036;-78
2022/03/27 01:30:16;;;;;;;1.55;0.77;;;;;;;-5.08;53.99;100927.19;5113946;27;20028;-78
2022/03/27 01:32:41;;;;;;;0.57;0.50;;;;;;;-5.10;54.94;100923.88;5093578;27;20512;-78
2022/03/27 01:35:07;;;;;;;0.70;0.50;;;;;;;-5.12;54.46;100923.22;5097078;27;20043;-78
2022/03/27 01:37:33;;;;;;;0.75;0.55;;;;;;;-5.13;55.41;100918.88;5107374;28;20071;-78
2022/03/27 01:39:59;;;;;;;1.70;0.65;;;;;;;-5.16;55.07;100923.56;5101658;28;20118;-78
2022/03/27 01:42:25;;;;;;;1.10;0.70;;;;;;;-5.17;55.26;100929.91;5101849;27;20421;-78
2022/03/27 01:44:50;;;;;;;1.00;0.60;;;;;;;-5.18;56.02;100938.94;5086291;27;20043;-78
2022/03/27 01:47:16;;;;;;;0.43;0.43;;;;;;;-5.20;56.46;100938.28;5084879;27;20084;-79
2022/03/27 01:49:42;;;;;;;0.40;0.40;;;;;;;-5.26;55.94;100941.63;5124175;27;20050;-78
2022/03/27 01:52:08;;;;;;;0.60;0.55;;;;;;;-5.29;56.43;100951.84;5123525;27;20529;-77
2022/03/27 01:54:34;;;;;;;1.63;0.60;;;;;;;-5.28;56.54;100945.47;5088711;28;20046;-77
2022/03/27 01:57:01;;;;;;;1.05;0.60;;;;;;;-5.27;57.33;100944.47;5110041;27;20058;-77
2022/03/27 01:59:26;;;;;;;0.75;0.70;;;;;;;-5.31;56.60;100960.03;5084139;28;20078;-77
2022/03/27 02:01:52;;;;;;;0.40;0.40;;;;;;;-5.33;57.07;100967.41;5100374;27;20035;-77
2022/03/27 02:04:18;;;;;;;0.40;0.40;;;;;;;-5.34;57.38;100971.06;5099453;27;20126;-78
2022/03/27 02:06:44;;;;;;;1.13;0.50;;;;;;;-5.30;58.16;100985.78;5093913;28;20036;-79
2022/03/27 02:09:12;;;;;;;0.60;0.60;;;;;;;-5.30;58.08;100982.25;5111832;27;20506;-78
2022/03/27 02:11:40;;;;;;;0.90;0.65;;;;;;;-5.33;57.58;100991.47;5101110;27;20039;-78
2022/03/27 02:14:06;;;;;;;0.40;0.40;;;;;;;-5.35;57.78;100988.13;5118339;27;20528;-78
2022/03/27 02:16:31;;;;;;;0.80;0.50;;;;;;;-5.38;58.10;100980.44;5126474;27;20035;-78
2022/03/27 02:18:57;;;;;;;1.20;0.40;;;;;;;-5.39;57.85;101000.16;5110276;27;20028;-78
2022/03/27 02:21:23;;;;;;;0.70;0.55;;;;;;;-5.40;58.03;100993.13;5115221;27;20047;-77
2022/03/27 02:23:48;;;;;;;1.05;0.82;;;;;;;-5.47;58.24;101003.69;5121214;27;20115;-77
2022/03/27 02:26:14;;;;;;;1.55;0.70;;;;;;;-5.50;59.03;100992.50;5105528;28;20074;-77
2022/03/27 02:28:40;;;;;;;2.08;0.77;;;;;;;-5.52;59.34;101005.19;5115186;27;20133;-77
2022/03/27 02:31:06;;;;;;;1.20;0.85;;;;;;;-5.56;59.04;101011.84;5106639;28;20066;-77
2022/03/27 02:33:32;;;;;;;0.52;0.52;;;;;;;-5.60;58.73;101007.84;5118487;28;20581;-77
2022/03/27 02:35:57;;;;;;;0.40;0.40;;;;;;;-5.60;59.56;101023.88;5121602;28;20088;-78
2022/03/27 02:38:24;;;;;;;0.65;0.50;;;;;;;-5.62;59.50;101016.03;5105385;28;20732;-79
2022/03/27 02:40:49;;;;;;;0.90;0.47;;;;;;;-5.65;60.07;101032.41;5127361;28;20047;-79
2022/03/27 02:43:15;;;;;;;0.85;0.60;;;;;;;-5.69;60.00;101031.09;5100621;27;20519;-79
2022/03/27 02:45:41;;;;;;;0.50;0.40;;;;;;;-5.70;59.06;101028.59;5127733;27;20047;-78
2022/03/27 02:48:07;;;;;;;0.50;0.50;;;;;;;-5.75;60.01;101037.06;5126685;27;20508;-78
2022/03/27 02:50:33;;;;;;;0.68;0.45;;;;;;;-5.78;59.54;101026.72;5102487;28;20036;-78
2022/03/27 02:52:59;;;;;;;0.68;0.65;;;;;;;-5.80;59.46;101050.09;5120996;27;20141;-77
2022/03/27 02:55:26;;;;;;;1.20;0.60;;;;;;;-5.82;59.34;101050.28;5119678;27;20035;-79
2022/03/27 02:57:53;;;;;;;0.75;0.60;;;;;;;-5.87;59.88;101039.25;5094559;28;20418;-78
2022/03/27 03:00:19;;;;;;;0.75;0.50;;;;;;;-5.90;59.27;101050.31;5103791;27;20071;-77
2022/03/27 03:02:45;;;;;;;0.50;0.45;;;;;;;-5.89;60.15;101059.97;5128774;27;20039;-78
2022/03/27 03:05:11;;;;;;;0.43;0.43;;;;;;;-5.90;60.09;101050.31;5118714;27;20130;-79
2022/03/27 03:07:41;;;;;;;0.40;0.40;;;;;;;-5.89;59.99;101059.13;5128292;27;20047;-77
2022/03/27 03:10:07;;;;;;;0.60;0.60;;;;;;;-5.89;60.29;101059.13;5098728;27;20088;-77
2022/03/27 03:12:33;;;;;;;0.85;0.77;;;;;;;-5.92;60.61;101059.44;5125366;27;20046;-77
2022/03/27 03:14:59;;;;;;;0.82;0.63;;;;;;;-5.95;60.85;101068.63;5118112;27;20039;-77
2022/03/27 03:17:25;;;;;;;0.80;0.63;;;;;;;-5.96;60.36;101066.97;5105260;28;20036;-77
2022/03/27 03:19:51;;;;;;;0.80;0.80;;;;;;;-5.97;60.88;101070.63;5113182;27;20038;-77
2022/03/27 03:22:17;;;;;;;1.40;0.88;;;;;;;-5.97;60.23;101088.50;5115406;27;20035;-77
2022/03/27 03:24:43;;;;;;;0.47;0.47;;;;;;;-5.99;60.10;101071.81;5082049;28;20537;-77
2022/03/27 03:27:09;;;;;;;0.47;0.47;;;;;;;-5.99;59.17;101087.84;5131674;27;20031;-78
2022/03/27 03:29:35;;;;;;;0.63;0.52;;;;;;;-6.02;59.35;101097.03;5100388;27;20118;-78
2022/03/27 03:32:01;;;;;;;0.80;0.68;;;;;;;-6.06;58.76;101094.84;5125304;27;20521;-78
2022/03/27 03:34:27;;;;;;;1.48;1.05;;;;;;;-6.09;59.54;101101.31;5117395;27;20071;-79
2022/03/27 03:36:52;;;;;;;1.10;0.60;;;;;;;-6.10;59.60;101107.66;5128842;27;20513;-78
2022/03/27 03:39:18;;;;;;;1.02;0.70;;;;;;;-6.12;59.08;101115.00;5088606;27;20039;-77
2022/03/27 03:41:44;;;;;;;0.60;0.60;;;;;;;-6.15;59.35;101109.97;5126338;27;20108;-77
2022/03/27 03:44:10;;;;;;;0.60;0.60;;;;;;;-6.16;59.96;101113.66;5126343;27;20074;-78
2022/03/27 03:46:35;;;;;;;2.55;0.80;;;;;;;-6.19;59.50;101116.66;5101032;28;20122;-78
2022/03/27 03:49:01;;;;;;;0.65;0.60;;;;;;;-6.22;58.64;101117.81;5111186;27;20043;-79
2022/03/27 03:51:26;;;;;;;0.85;0.50;;;;;;;-6.23;58.61;101120.66;5087839;27;20074;-78
2022/03/27 03:53:52;;;;;;;2.10;0.50;;;;;;;-6.26;58.60;101127.13;5119803;27;20031;-78
2022/03/27 03:56:18;;;;;;;0.55;0.40;;;;;;;-6.22;58.33;101123.16;5122964;27;20512;-78
2022/03/27 03:58:43;;;;;;;1.20;0.43;;;;;;;-6.19;57.95;101143.38;5099822;27;20032;-78
2022/03/27 04:01:09;;;;;;;0.40;0.32;;;;;;;-6.18;58.08;101135.19;5109188;27;20039;-77
2022/03/27 04:03:35;;;;;;;0.43;0.43;;;;;;;-6.23;57.84;101140.19;5123536;27;20416;-77
2022/03/27 04:06:00;;;;;;;0.45;0.35;;;;;;;-6.22;58.39;101141.84;5123346;27;20114;-78
2022/03/27 04:08:26;;;;;;;0.65;0.38;;;;;;;-5.87;58.20;101146.13;5094215;28;20067;-78
2022/03/27 04:10:51;;;;;;;0.68;0.68;;;;;;;-5.41;57.86;101145.72;5130302;27;20070;-77
2022/03/27 04:13:18;;;;;;;1.58;0.80;;;;;;;-5.02;57.09;101153.97;5116557;27;20529;-77
2022/03/27 04:15:43;;;;;;;2.17;1.00;;;;;;;-4.84;55.67;101146.63;5125719;27;20063;-77
2022/03/27 04:18:09;;;;;;;0.50;0.50;;;;;;;-4.67;54.74;101150.09;5125109;27;20066;-77
2022/03/27 04:20:35;;;;;;;0.57;0.50;;;;;;;-4.29;55.30;101151.19;5112672;27;20071;-78
2022/03/27 04:23:01;;;;;;;0.70;0.57;;;;;;;-4.06;53.23;101149.44;5088005;28;20044;-77
2022/03/27 04:25:27;;;;;;;1.20;0.68;;;;;;;-3.82;52.70;101166.41;5077229;28;20051;-78
2022/03/27 04:27:53;;;;;;;1.30;0.65;;;;;;;-3.58;51.93;101163.63;5095180;28;20044;-77
2022/03/27 04:30:18;;;;;;;1.63;0.70;;;;;;;-3.48;52.01;101166.91;5105141;27;20032;-78
2022/03/27 04:32:44;;;;;;;0.47;0.43;;;;;;;-3.30;50.38;101171.16;5097140;28;20154;-78
2022/03/27 04:35:10;;;;;;;0.98;0.68;;;;;;;-3.12;50.66;101169.06;5111974;27;20036;-78
2022/03/27 04:37:43;;;;;;;1.65;0.50;;;;;;;-2.88;49.43;101165.34;5113801;27;20075;-78
2022/03/27 04:40:13;;;;;;;0.65;0.45;;;;;;;-2.50;49.17;101174.22;5093090;28;20063;-78
2022/03/27 04:42:42;;;;;;;0.80;0.40;;;;;;;-2.34;48.66;101166.00;5097055;27;20039;-78
2022/03/27 04:45:09;;;;;;;1.75;0.47;;;;;;;-2.24;47.79;101182.72;5068872;27;20062;-78
2022/03/27 04:47:34;;;;;;;0.50;0.50;;;;;;;-1.98;47.28;101178.72;5087352;28;20051;-79
2022/03/27 04:50:01;;;;;;;1.35;0.85;;;;;;;-2.10;47.04;101182.88;5084450;28;20057;-79
2022/03/27 04:52:27;;;;;;;1.92;1.20;;;;;;;-1.88;47.19;101179.28;5103971;27;20098;-79
2022/03/27 04:54:53;;;;;;;2.03;1.40;;;;;;;-1.71;46.71;101186.13;5122093;27;20110;-79
2022/03/27 04:57:19;;;;;;;2.33;1.10;;;;;;;-1.43;46.24;101182.72;5115891;27;20139;-80
2022/03/27 04:59:44;;;;;;;1.10;0.90;;;;;;;-1.25;46.00;101183.13;5089110;28;20127;-79
2022/03/27 05:02:11;;;;;;;0.85;0.60;;;;;;;-1.24;45.15;101187.50;5109594;27;20047;-79
2022/03/27 05:04:37;;;;;;;1.50;0.60;;;;;;;-0.79;45.59;101180.91;5096646;27;20051;-79
2022/03/27 05:07:04;;;;;;;1.73;0.52;;;;;;;-0.63;43.40;101198.69;5121008;27;20490;-79
2022/03/27 05:09:29;;;;;;;1.10;0.63;;;;;;;-0.56;42.82;101199.56;5108457;28;20039;-79
2022/03/27 05:11:55;;;;;;;0.50;0.50;;;;;;;-0.25;42.78;101182.16;5104222;27;20519;-80
2022/03/27 05:14:21;;;;;;;0.57;0.50;;;;;;;-0.08;41.88;101194.31;5101063;28;20409;-79
2022/03/27 05:16:47;;;;;;;1.10;0.50;;;;;;;-0.16;41.58;101203.41;5111087;27;20088;-79
2022/03/27 05:19:14;;;;;;;1.75;0.60;;;;;;;-0.17;41.08;101201.75;5096530;27;20039;-80
2022/03/27 05:21:39;;;;;;;1.33;0.60;;;;;;;-0.02;40.20;101198.91;5129565;27;20038;-80
2022/03/27 05:24:08;;;;;;;1.00;0.50;;;;;;;-0.09;40.67;101198.03;5119688;27;20038;-80
2022/03/27 05:26:35;;;;;;;7.63;0.80;;;;;;;0.29;40.16;101217.38;5110129;27;20425;-80
2022/03/27 05:29:02;;;;;;;0.73;0.50;;;;;;;0.14;40.06;101209.38;5108151;27;20054;-79
2022/03/27 05:31:28;;;;;;;0.60;0.50;;;;;;;-0.05;39.22;101207.41;5101706;28;20035;-79
2022/03/27 05:33:53;;;;;;;0.65;0.47;;;;;;;0.38;39.84;101221.56;5093602;27;20051;-79
2022/03/27 05:36:19;;;;;;;0.50;0.50;;;;;;;0.20;38.73;101216.72;5118999;27;20105;-79
2022/03/27 05:38:44;;;;;;;0.85;0.65;;;;;;;0.11;38.13;101219.75;5110569;27;20083;-80
2022/03/27 05:41:10;;;;;;;1.27;0.57;;;;;;;0.41;39.01;101218.47;5097477;27;20063;-79
2022/03/27 05:43:36;;;;;;;1.95;1.13;;;;;;;0.42;37.93;101212.03;5120829;27;20044;-79
2022/03/27 05:46:02;;;;;;;1.08;0.60;;;;;;;0.67;38.84;101217.75;5112819;27;20043;-80
2022/03/27 05:48:28;;;;;;;0.80;0.50;;;;;;;0.66;37.93;101229.59;5107952;27;20032;-79
2022/03/27 05:50:53;;;;;;;1.90;0.98;;;;;;;0.68;37.57;101224.81;5091798;27;20145;-79
2022/03/27 05:53:19;;;;;;;0.60;0.60;;;;;;;0.99;36.55;101224.28;5095520;27;20119;-79
2022/03/27 05:55:46;;;;;;;0.90;0.80;;;;;;;1.03;36.32;101224.72;5082630;28;20119;-79
2022/03/27 05:58:12;;;;;;;1.70;0.60;;;;;;;1.08;36.73;101227.66;5111264;27;20040;-79
2022/03/27 06:00:37;;;;;;;1.40;0.68;;;;;;;1.22;36.03;101242.88;5110574;27;20043;-79
2022/03/27 06:03:03;;;;;;;1.40;0.70;;;;;;;1.11;36.36;101246.16;5109438;27;21461;-79
2022/03/27 06:05:29;;;;;;;0.68;0.50;;;;;;;1.24;35.30;101238.09;5086003;27;20490;-79
2022/03/27 06:07:56;;;;;;;0.70;0.50;;;;;;;0.98;35.19;101238.84;5122411;27;20047;-79
2022/03/27 06:10:24;;;;;;;1.38;0.50;;;;;;;0.98;35.00;101238.84;5107175;27;20527;-79
2022/03/27 06:12:51;;;;;;;1.17;0.80;;;;;;;1.14;35.58;101234.94;5094862;28;20126;-78
2022/03/27 06:15:17;;;;;;;2.42;1.15;;;;;;;0.99;36.22;101245.91;5115828;27;20035;-80
2022/03/27 06:17:48;;;;;;;2.72;1.02;;;;;;;1.38;35.61;101247.84;5105535;28;20137;-79
2022/03/27 06:20:16;;;;;;;0.80;0.63;;;;;;;1.62;35.25;101251.03;5123803;27;20100;-80
2022/03/27 06:22:42;;;;;;;;;;;;;;;2.27;34.25;101249.31;5096316;28;20043;-79
2022/03/27 06:25:09;;;;;;;0.60;0.60;;;;;;;2.26;32.87;101240.34;5128138;27;19919;-79
2022/03/27 06:27:35;;;;;;;3.03;0.70;;;;;;;2.21;33.56;101255.56;5096835;28;20126;-79
2022/03/27 06:30:01;;;;;;;0.63;0.40;;;;;;;2.53;33.41;101259.25;5102131;28;20361;-79
2022/03/27 06:32:26;;;;;;;0.90;0.60;;;;;;;2.80;33.23;101266.25;5098192;28;20576;-79
2022/03/27 06:34:57;;;;;;;1.02;0.50;;;;;;;2.67;33.16;101269.00;5116903;28;20047;-79
2022/03/27 06:37:23;;;;;;;2.03;0.60;;;;;;;2.76;31.96;101261.44;5126697;28;20142;-79
2022/03/27 06:39:49;;;;;;;0.57;0.40;;;;;;;2.84;31.74;101274.75;5120708;28;20035;-79
2022/03/27 06:42:14;;;;;;;1.70;0.60;;;;;;;2.94;32.45;101277.84;5099293;28;20044;-79
2022/03/27 06:44:41;;;;;;;1.35;0.70;;;;;;;3.12;31.17;101271.69;5104972;28;20134;-80
2022/03/27 06:47:08;;;;;;;0.88;0.57;;;;;;;2.80;30.07;101274.38;5109551;28;20560;-79
2022/03/27 06:49:34;;;;;;;0.60;0.50;;;;;;;2.35;31.48;101279.69;5089566;28;20066;-80
2022/03/27 06:52:00;;;;;;;0.70;0.50;;;;;;;2.64;31.67;101281.09;5121085;28;20157;-80
2022/03/27 06:54:26;;;;;;;1.35;0.60;;;;;;;3.02;30.99;101281.16;5107637;28;20043;-78
2022/03/27 06:56:51;;;;;;;0.73;0.50;;;;;;;3.18;30.65;101279.00;5114449;28;20103;-80
2022/03/27 06:59:17;;;;;;;0.57;0.50;;;;;;;3.29;30.57;101291.84;5100183;28;20117;-78
2022/03/27 07:04:27;;;;;;;0.50;0.50;;;;;;;3.01;30.12;101278.66;5120647;28;20096;-79
2022/03/27 07:06:52;;;;;;;0.90;0.70;;;;;;;3.46;30.68;101282.13;5077813;28;20048;-80
2022/03/27 07:09:18;;;;;;;1.08;0.70;;;;;;;4.03;29.43;101284.88;5112142;28;20540;-79
2022/03/27 07:11:46;;;;;;;0.60;0.40;;;;;;;3.94;28.47;101282.41;5101913;28;20068;-79
2022/03/27 07:14:12;;;;;;;1.55;0.70;;;;;;;3.71;28.76;101290.34;5096714;28;20035;-80
2022/03/27 07:16:39;;;;;;;3.53;0.50;;;;;;;3.29;28.82;101292.69;5108981;28;20086;-79
2022/03/27 07:19:05;;;;;;;1.33;1.03;;;;;;;3.23;28.66;101282.69;5110850;28;20027;-78
2022/03/27 07:21:31;;;;;;;1.98;0.60;;;;;;;3.63;29.07;101274.31;5099297;28;20069;-80
2022/03/27 07:23:58;;;;;;;0.60;0.50;;;;;;;4.09;28.22;101281.25;5106847;28;20509;-80
2022/03/27 07:26:24;;;;;;;0.60;0.40;;;;;;;4.50;28.59;101272.47;5097267;28;20044;-80
2022/03/27 07:28:50;;;;;;;0.88;0.40;;;;;;;4.59;27.84;101273.84;5102202;27;20035;-80
2022/03/27 07:31:15;;;;;;;0.77;0.60;;;;;;;4.94;27.87;101281.41;5117286;27;20145;-80
2022/03/27 07:33:42;;;;;;;1.35;0.80;;;;;;;5.11;27.01;101274.28;5093058;28;20417;-79
2022/03/27 07:36:08;;;;;;;2.50;0.80;;;;;;;5.43;27.06;101277.59;5107198;27;20498;-79
2022/03/27 07:38:34;;;;;;;1.13;0.50;;;;;;;5.54;26.95;101282.22;5081641;28;20250;-80
2022/03/27 07:41:00;;;;;;;0.85;0.55;;;;;;;5.40;26.27;101272.63;5111885;27;20048;-79
2022/03/27 07:43:25;;;;;;;1.13;0.80;;;;;;;5.33;26.99;101269.97;5094818;27;20143;-79
2022/03/27 07:45:51;;;;;;;1.08;0.52;;;;;;;5.32;26.22;101286.53;5109687;27;20032;-78
2022/03/27 07:48:17;;;;;;;1.63;0.40;;;;;;;5.01;26.12;101282.13;5099743;28;20071;-79
2022/03/27 07:50:42;;;;;;;1.13;0.30;;;;;;;5.25;26.83;101283.09;5098909;28;20453;-78
2022/03/27 07:53:08;;;;;;;2.67;0.73;;;;;;;5.70;26.21;101272.56;5115961;27;20129;-78
2022/03/27 07:55:34;;;;;;;2.17;0.47;;;;;;;5.07;26.05;101284.78;5094478;28;20083;-78
2022/03/27 07:58:00;;;;;;;2.78;0.57;;;;;;;5.53;26.06;101283.28;5093953;28;20036;-78
2022/03/27 08:00:29;;;;;;;0.98;0.50;;;;;;;5.78;25.85;101279.59;5106488;27;20450;-73
2022/03/27 08:02:56;;;;;;;0.75;0.55;;;;;;;5.32;25.48;101283.81;5112242;27;20035;-73
2022/03/27 08:05:21;;;;;;;2.65;0.43;;;;;;;5.60;25.76;101277.78;5125438;27;20076;-74
2022/03/27 08:07:47;;;;;;;3.58;0.90;;;;;;;6.09;25.21;101282.03;5125526;27;20039;-74
2022/03/27 08:10:14;;;;;;;1.02;0.50;;;;;;;6.37;24.98;101291.41;5107819;27;20040;-74
2022/03/27 08:12:39;;;;;;;1.38;0.60;;;;;;;6.44;23.92;101290.22;5123581;27;20035;-73
2022/03/27 08:15:06;;;;;;;1.35;0.50;;;;;;;6.78;24.42;101293.16;5108756;27;20035;-72
2022/03/27 08:17:32;;;;;;;1.20;0.57;;;;;;;6.39;23.39;101283.81;5114558;27;20035;-75
2022/03/27 08:19:58;;;;;;;0.90;0.45;;;;;;;6.66;24.51;101287.72;5108225;27;20114;-74
2022/03/27 08:22:24;;;;;;;0.60;0.43;;;;;;;7.33;23.35;101298.09;5114243;27;20185;-73
2022/03/27 08:24:50;;;;;;;0.70;0.50;;;;;;;7.37;22.70;101294.63;5129599;27;20054;-73
2022/03/27 08:27:16;;;;;;;0.52;0.50;;;;;;;6.78;23.38;101295.88;5117817;27;20046;-77
2022/03/27 08:29:42;;;;;;;1.95;0.50;;;;;;;6.88;23.71;101288.72;5094277;28;20043;-73
2022/03/27 08:32:12;;;;;;;1.30;0.88;;;;;;;7.33;23.62;101298.91;5124914;27;20413;-72
2022/03/27 08:34:40;;;;;;;1.73;0.60;;;;;;;7.35;23.21;101307.69;5115877;27;20044;-73
2022/03/27 08:37:08;;;;;;;3.05;0.50;;;;;;;6.92;23.46;101306.25;5111753;28;20036;-74
2022/03/27 08:39:34;;;;;;;1.35;0.60;;;;;;;6.13;23.80;101307.75;5119741;27;20031;-74
2022/03/27 08:42:00;;;;;;;1.38;0.60;;;;;;;6.08;24.30;101307.63;5121696;27;20082;-74
2022/03/27 08:44:27;;;;;;;2.92;0.77;;;;;;;6.85;23.51;101296.56;5126448;27;20089;-74
2022/03/27 08:46:54;;;;;;;0.70;0.52;;;;;;;6.23;23.40;101293.53;5129207;27;20046;-73
2022/03/27 08:49:26;;;;;;;2.55;0.73;;;;;;;6.01;23.97;101294.09;5108299;27;20457;-74
2022/03/27 08:52:00;;;;;;;2.78;0.60;;;;;;;6.33;23.60;101291.88;5123458;27;20555;-73
2022/03/27 08:54:33;;;;;;;2.33;0.50;;;;;;;6.05;23.33;101280.84;5118306;27;20083;-73
2022/03/27 08:57:13;;;;;;;0.47;0.47;;;;;;;5.52;24.11;101281.63;5109025;27;20039;-72
2022/03/27 08:59:39;;;;;;;1.70;0.65;;;;;;;5.21;25.08;101279.19;5121308;27;20133;-75
2022/03/27 09:02:04;;;;;;;0.85;0.65;;;;;;;5.28;24.50;101283.47;5096690;27;20443;-73
2022/03/27 09:04:31;;;;;;;2.42;0.77;;;;;;;5.62;25.03;101290.09;5118239;27;20037;-73
2022/03/27 09:06:59;;;;;;;1.92;0.80;;;;;;;5.66;23.85;101282.28;5093688;27;20036;-74
2022/03/27 09:09:25;;;;;;;1.88;0.70;;;;;;;5.73;24.11;101288.47;5108632;27;20066;-74
2022/03/27 09:11:54;;;;;;;1.75;0.65;;;;;;;5.36;24.73;101285.84;5118348;27;20067;-74
2022/03/27 09:14:20;;;;;;;0.73;0.55;;;;;;;4.20;24.59;101294.13;5100480;27;20047;-73
2022/03/27 09:17:04;;;;;;;1.33;0.60;;;;;;;2.58;26.61;101287.34;5097699;27;20039;-73
2022/03/27 09:19:39;;;;;;;0.90;0.70;;;;;;;1.68;27.64;101275.38;5124741;27;20044;-73
2022/03/27 09:22:18;;;;;;;3.35;0.60;;;;;;;0.82;29.36;101294.06;5093071;28;20031;-72
2022/03/27 09:24:47;;;;;;;0.98;0.60;;;;;;;0.22;30.03;101298.31;5096208;28;20717;-72
2022/03/27 09:27:16;;;;;;;1.50;0.63;;;;;;;-0.11;31.50;101287.25;5117741;27;20535;-73
2022/03/27 09:30:06;;;;;;;;;;;;;;;-0.24;31.52;101300.63;5077789;28;20042;-73
2022/03/27 09:32:37;;;;;;;1.00;0.60;;;;;;;-0.44;31.67;101295.06;5119803;27;19989;-73
2022/03/27 09:35:04;;;;;;;3.88;0.68;;;;;;;-0.61;31.34;101288.25;5112761;27;20051;-74
2022/03/27 09:37:32;;;;;;;0.85;0.60;;;;;;;-1.00;31.73;101308.34;5106477;28;20038;-74
2022/03/27 09:39:58;;;;;;;1.63;0.68;;;;;;;-1.19;31.49;101298.19;5094466;28;20061;-73
2022/03/27 09:42:24;;;;;;;1.77;0.50;;;;;;;-1.20;32.85;101291.13;5108828;27;20036;-73
2022/03/27 09:45:18;;;;;;;1.20;0.60;;;;;;;-1.17;32.89;101281.81;5102799;27;20047;-74
2022/03/27 09:47:46;;;;;;;0.80;0.40;;;;;;;-1.30;32.70;101307.56;5109697;27;20035;-73
2022/03/27 09:50:32;;;;;;;0.73;0.70;;;;;;;-1.27;33.27;101295.56;5086591;28;20051;-73
2022/03/27 09:53:19;;;;;;;2.30;0.70;;;;;;;-1.33;33.48;101302.53;5113278;28;20043;-73
2022/03/27 09:55:46;;;;;;;0.60;0.60;;;;;;;-1.42;32.92;101292.06;5105083;28;20043;-74
2022/03/27 09:58:15;;;;;;;1.35;0.52;;;;;;;-1.42;33.55;101297.44;5105188;27;20508;-73
2022/03/27 10:00:42;;;;;;;0.75;0.60;;;;;;;-1.46;33.50;101288.91;5102847;27;20399;-74
2022/03/27 10:03:09;;;;;;;1.42;0.80;;;;;;;-1.41;33.28;101297.25;5113752;27;20089;-73
2022/03/27 10:05:35;;;;;;;1.83;0.60;;;;;;;-1.55;32.57;101298.13;5111483;27;20043;-74
2022/03/27 10:08:01;;;;;;;0.70;0.60;;;;;;;-1.69;33.52;101289.00;5120951;27;20043;-73
2022/03/27 10:10:27;;;;;;;1.13;0.88;;;;;;;-1.66;34.44;101288.63;5110664;28;20035;-73
2022/03/27 10:12:55;;;;;;;1.25;0.60;;;;;;;-1.60;34.62;101282.50;5104842;27;20048;-75
2022/03/27 10:15:22;;;;;;;1.30;0.60;;;;;;;-1.53;34.25;101275.38;5102284;27;20486;-73
2022/03/27 10:18:01;;;;;;;0.93;0.57;;;;;;;-1.57;35.32;101279.44;5086966;28;20044;-73
2022/03/27 10:20:29;;;;;;;0.70;0.50;;;;;;;-1.59;34.34;101280.63;5090967;28;20126;-73
2022/03/27 10:23:01;;;;;;;0.90;0.50;;;;;;;-1.69;35.55;101289.00;5090387;28;20055;-74
2022/03/27 10:25:34;;;;;;;1.67;0.55;;;;;;;-1.70;35.14;101279.28;5103019;27;20051;-74
2022/03/27 10:28:01;;;;;;;1.00;0.70;;;;;;;-1.66;34.90;101291.31;5124040;27;20084;-73
2022/03/27 10:30:27;;;;;;;1.75;0.80;;;;;;;-1.63;35.01;101290.94;5112085;27;20039;-73
2022/03/27 10:32:53;;;;;;;0.75;0.50;;;;;;;-1.68;35.63;101292.53;5083323;28;20047;-74
2022/03/27 10:36:10;;;;;;;2.97;0.70;;;;;;;-1.77;35.08;101283.69;5095045;28;20035;-74
2022/03/27 10:38:43;;;;;;;3.83;0.88;;;;;;;-1.69;35.56;101291.69;5062144;28;20052;-73
2022/03/27 10:41:42;;;;;;;0.63;0.60;;;;;;;-1.61;36.11;101288.06;5098199;28;20039;-73
2022/03/27 10:44:47;;;;;;;2.47;0.80;;;;;;;-1.55;37.21;101304.31;5109778;28;20062;-73
2022/03/27 10:47:21;;;;;;;0.57;0.47;;;;;;;-1.54;35.56;101289.84;5046955;28;20043;-73
2022/03/27 10:50:01;;;;;;;3.50;0.60;;;;;;;-1.50;35.87;101292.16;5066352;28;20036;-72
2022/03/27 10:52:30;;;;;;;2.08;0.70;;;;;;;-1.50;35.88;101293.00;5097933;28;20090;-72
2022/03/27 10:55:01;;;;;;;1.48;0.80;;;;;;;-1.55;36.55;101280.09;5105061;28;20694;-73
2022/03/27 10:57:32;;;;;;;0.77;0.57;;;;;;;-1.65;35.88;101286.78;5097951;28;20031;-73
2022/03/27 10:59:58;;;;;;;3.63;0.90;;;;;;;-1.72;36.70;101291.25;5105530;28;20043;-73
2022/03/27 11:02:50;;;;;;;1.05;0.80;;;;;;;-1.75;36.63;101295.09;5103489;28;20040;-73
2022/03/27 11:05:31;;;;;;;1.42;0.60;;;;;;;-1.72;35.97;101292.06;5099198;28;20387;-73
2022/03/27 11:08:19;;;;;;;1.05;0.88;;;;;;;-1.75;35.70;101296.97;5085800;28;20082;-73
2022/03/27 11:10:54;;;;;;;3.50;0.80;;;;;;;-1.87;36.05;101293.91;5125033;27;20861;-73
2022/03/27 11:13:30;;;;;;;2.15;0.90;;;;;;;-1.90;35.83;101267.38;5088475;28;20435;-73
2022/03/27 11:16:15;;;;;;;1.60;0.90;;;;;;;-1.87;35.97;101277.78;5102586;27;20124;-73
2022/03/27 11:18:46;;;;;;;3.38;0.90;;;;;;;-1.79;35.86;101279.53;5112841;27;20045;-73
2022/03/27 11:21:13;;;;;;;1.35;0.90;;;;;;;-1.68;36.91;101279.06;5116266;27;20042;-73
2022/03/27 11:23:42;;;;;;;2.42;1.40;;;;;;;-1.66;36.58;101271.66;5092172;28;20064;-73
2022/03/27 11:26:21;;;;;;;1.15;0.90;;;;;;;-1.67;36.01;101284.28;5114830;27;20413;-74
2022/03/27 11:28:48;;;;;;;2.60;1.35;;;;;;;-1.65;35.57;101271.47;5096200;27;20207;-71
2022/03/27 11:31:17;;;;;;;0.90;0.70;;;;;;;-1.64;35.23;101258.84;5128335;27;20047;-73
2022/03/27 11:33:45;;;;;;;0.70;0.70;;;;;;;-1.65;35.88;101276.84;5088620;28;20048;-72
2022/03/27 11:36:14;;;;;;;2.92;0.80;;;;;;;-1.70;35.26;101273.88;5101259;27;20031;-73